Latest Weather Observations for Birdsville

IDQ60801

Issued at 8:52 am EST Thursday 23 September 2021 (issued every 10 minutes, with the page automatically refreshed every 10 minutes)

About weather observations | Map of weather stations | Latest weather observations for QLD | Other Formats
Station Details ID: 038026 Name: BIRDSVILLE AIRPORT Lat: -25.90 Lon: 139.35 Height: 46.6 m
Data from the previous 72 hours. | See also: Recent months at Birdsville
Date/Time
EST
Temp
°C
App
Temp
°C
Dew
Point
°C
Rel
Hum
%
Delta-T
°C
Wind Press
QNH
hPa
Press
MSL
hPa
Rain since
9am
mm
Dir  Spd
km/h
Gust
km/h
Spd
kts
Gust
kts
23/08:30am 16.0 11.6 0.2 34 6.8 SE 13 15 7 8 1024.7 1024.5 0.0
23/08:00am 13.6 9.6 0.3 40 5.6 SE 11 15 6 8 1024.5 1024.3 0.0
23/07:30am 10.8 6.6 -0.6 45 4.6 SSE 11 15 6 8 1024.2 1024.0 0.0
23/07:00am 8.7 4.3 -2.6 45 4.2 S 11 13 6 7 1024.3 1024.1 0.0
23/06:30am 8.4 4.0 -2.8 45 4.1 S 11 11 6 6 1024.0 1023.8 0.0
23/06:00am 8.5 4.4 -3.0 44 4.2 SSE 9 11 5 6 1023.6 1023.4 0.0
23/05:30am 9.0 4.6 -2.6 44 4.3 SSE 11 13 6 7 1023.4 1023.2 0.0
23/05:00am 9.0 4.9 -2.9 43 4.4 SSE 9 11 5 6 1023.3 1023.1 0.0
23/04:30am 9.0 5.3 -3.2 42 4.5 S 7 9 4 5 1023.2 1023.0 0.0
23/04:00am 9.3 5.1 -3.9 39 4.8 S 9 11 5 6 1023.1 1022.9 0.0
23/03:30am 9.8 5.2 -4.2 37 5.1 S 11 11 6 6 1023.3 1023.1 0.0
23/03:00am 10.3 6.1 -4.1 36 5.3 S 9 11 5 6 1023.5 1023.3 0.0
23/02:30am 10.3 5.6 -5.2 33 5.5 S 11 13 6 7 1023.8 1023.6 0.0
23/02:00am 11.2 6.5 -5.3 31 5.9 SSE 11 13 6 7 1024.1 1023.9 0.0
23/01:30am 11.8 7.1 -4.8 31 6.1 SSE 11 15 6 8 1024.4 1024.2 0.0
23/01:00am 11.3 7.3 -5.6 30 6.0 S 7 9 4 5 1024.6 1024.4 0.0
23/12:30am 11.4 7.3 -6.4 28 6.3 S 7 9 4 5 1024.7 1024.5 0.0
23/12:00am 12.8 8.0 -5.7 27 6.7 S 11 13 6 7 1024.7 1024.5 0.0
 
Date/Time
EST
Temp
°C
App
Temp
°C
Dew
Point
°C
Rel
Hum
%
Delta-T
°C
Wind Press
QNH
hPa
Press
MSL
hPa
Rain since
9am
mm
Dir  Spd
km/h
Gust
km/h
Spd
kts
Gust
kts
22/11:30pm 12.9 8.1 -5.6 27 6.8 S 11 13 6 7 1024.8 1024.6 0.0
22/11:00pm 13.4 9.0 -5.7 26 7.0 S 9 13 5 7 1025.1 1025.0 0.0
22/10:30pm 14.4 9.6 -5.9 24 7.5 SSE 11 13 6 7 1025.0 1024.9 0.0
22/10:00pm 15.1 10.3 -5.9 23 7.8 SSE 11 15 6 8 1025.2 1025.1 0.0
22/09:30pm 16.0 10.8 -5.7 22 8.2 SSE 13 15 7 8 1025.3 1025.2 0.0
22/09:00pm 16.4 11.2 -6.0 21 8.4 SSE 13 15 7 8 1025.3 1025.2 0.0
22/08:30pm 17.2 12.4 -5.9 20 8.8 SSE 11 13 6 7 1025.0 1024.9 0.0
22/08:00pm 17.5 12.7 -6.3 19 9.0 SSE 11 13 6 7 1024.7 1024.5 0.0
22/07:30pm 18.8 14.4 -6.0 18 9.6 SSE 9 13 5 7 1024.5 1024.3 0.0
22/07:00pm 20.0 14.1 -5.8 17 10.1 SE 17 22 9 12 1024.2 1024.0 0.0
22/06:30pm 21.0 14.4 -6.6 15 10.8 SE 20 30 11 16 1024.0 1023.8 0.0
22/06:00pm 21.8 15.2 -6.8 14 11.2 SE 20 26 11 14 1023.8 1023.6 0.0
22/05:30pm 22.1 15.6 -5.7 15 11.2 SE 20 30 11 16 1023.9 1023.7 0.0
22/05:00pm 22.4 15.5 -6.4 14 11.4 SSE 22 32 12 17 1023.9 1023.7 0.0
22/04:30pm 22.6 15.8 -5.3 15 11.4 SE 22 32 12 17 1024.0 1023.8 0.0
22/04:00pm 22.3 15.5 -5.6 15 11.2 SE 22 32 12 17 1024.1 1023.9 0.0
22/03:30pm 22.1 14.8 -6.6 14 11.4 ESE 24 32 13 17 1024.4 1024.2 0.0
22/03:00pm 22.0 15.5 -5.8 15 11.1 SE 20 33 11 18 1024.7 1024.5 0.0
22/02:30pm 22.3 15.9 -4.7 16 11.1 SE 20 33 11 18 1025.1 1025.0 0.0
22/02:00pm 21.4 14.2 -5.4 16 10.7 SSE 24 39 13 21 1025.8 1025.7 0.0
22/01:30pm 20.6 13.8 -5.3 17 10.4 SSE 22 39 12 21 1026.5 1026.4 0.0
22/01:00pm 20.3 14.1 -4.8 18 10.0 SE 19 30 10 16 1027.1 1027.0 0.0
22/12:30pm 19.8 13.1 -3.8 20 9.7 ESE 22 32 12 17 1027.5 1027.4 0.0
22/12:00pm 20.6 13.6 -3.1 20 9.8 SE 24 37 13 20 1028.1 1028.0 0.0
22/11:30am 19.2 12.6 -3.6 21 9.3 SE 22 37 12 20 1028.4 1028.3 0.0
22/11:00am 18.8 12.2 -3.3 22 9.0 SE 22 32 12 17 1028.8 1028.7 0.0
22/10:30am 18.2 10.8 -3.8 22 8.9 ESE 26 35 14 19 1029.3 1029.2 0.0
22/10:00am 17.6 10.2 -3.7 23 8.5 ESE 26 35 14 19 1029.6 1029.5 0.0
22/09:30am 16.7 9.3 -3.4 25 8.0 ESE 26 35 14 19 1029.6 1029.5 0.0
22/09:00am 15.1 7.8 -3.2 28 7.2 ESE 26 35 14 19 1029.5 1029.4 0.0
22/08:30am 13.4 7.2 -3.4 31 6.5 SE 20 28 11 15 1029.4 1029.3 0.0
22/08:00am 10.9 5.3 -3.2 37 5.3 SE 17 24 9 13 1029.1 1029.0 0.0
22/07:30am 9.0 4.1 -3.5 41 4.6 SSE 13 19 7 10 1028.8 1028.7 0.0
22/07:00am 7.4 2.5 -3.7 45 3.9 SSE 13 15 7 8 1028.5 1028.4 0.0
22/06:30am 5.6 1.2 -5.4 45 3.7 SSE 9 11 5 6 1028.3 1028.2 0.0
22/06:00am 6.9 2.6 -4.5 44 3.9 SSE 9 13 5 7 1028.0 1027.9 0.0
22/05:30am 7.3 2.6 -4.7 42 4.2 SSE 11 13 6 7 1027.6 1027.5 0.0
22/05:00am 7.8 2.8 -4.3 42 4.2 SSE 13 15 7 8 1027.4 1027.3 0.0
22/04:30am 6.2 1.3 -6.7 39 4.2 S 11 13 6 7 1027.3 1027.2 0.0
22/04:00am 7.0 2.2 -5.7 40 4.3 SSW 11 11 6 6 1027.4 1027.3 0.0
22/03:30am 6.9 2.1 -6.4 38 4.4 SSW 11 13 6 7 1027.4 1027.3 0.0
22/03:00am 7.0 2.6 -6.3 38 4.4 S 9 9 5 5 1027.4 1027.3 0.0
22/02:30am 7.5 3.4 -6.2 37 4.6 SSW 7 11 4 6 1027.7 1027.6 0.0
22/02:00am 7.6 2.3 -6.9 35 4.8 SSW 13 15 7 8 1028.0 1027.9 0.0
22/01:30am 8.3 3.1 -6.6 34 5.0 S 13 15 7 8 1028.5 1028.4 0.0
22/01:00am 9.3 4.1 -6.5 32 5.4 SSW 13 17 7 9 1028.9 1028.8 0.0
22/12:30am 12.2 6.0 -4.4 31 6.2 S 19 22 10 12 1029.1 1029.0 0.0
22/12:00am 12.6 6.2 -4.5 30 6.3 S 20 24 11 13 1029.2 1029.1 0.0
 
Date/Time
EST
Temp
°C
App
Temp
°C
Dew
Point
°C
Rel
Hum
%
Delta-T
°C
Wind Press
QNH
hPa
Press
MSL
hPa
Rain since
9am
mm
Dir  Spd
km/h
Gust
km/h
Spd
kts
Gust
kts
21/11:30pm 12.8 6.6 -4.8 29 6.5 S 19 22 10 12 1029.1 1029.0 0.0
21/11:00pm 13.0 6.8 -4.6 29 6.5 S 19 24 10 13 1029.4 1029.3 0.0
21/10:30pm 13.2 7.4 -4.4 29 6.6 S 17 20 9 11 1029.5 1029.4 0.0
21/10:00pm 13.4 7.6 -4.7 28 6.7 S 17 20 9 11 1029.5 1029.4 0.0
21/09:30pm 14.0 8.1 -5.2 26 7.2 S 17 22 9 12 1029.2 1029.1 0.0
21/09:00pm 14.6 8.4 -5.2 25 7.4 S 19 22 10 12 1028.9 1028.8 0.0
21/08:30pm 15.3 8.4 -5.7 23 7.9 SSE 22 28 12 15 1028.7 1028.6 0.0
21/08:00pm 15.9 8.6 -6.4 21 8.2 SSE 24 32 13 17 1028.2 1028.1 0.0
21/07:30pm 16.5 9.2 -5.9 21 8.5 SSE 24 33 13 18 1027.9 1027.8 0.0
21/07:00pm 17.2 8.8 -5.9 20 8.7 SSE 30 37 16 20 1027.4 1027.3 0.0
21/06:30pm 17.8 8.8 -6.1 19 9.1 SSE 33 43 18 23 1027.1 1027.0 0.0
21/06:00pm 18.5 8.8 -5.5 19 9.3 S 37 48 20 26 1026.7 1026.6 0.0
21/05:30pm 19.0 9.7 -5.8 18 9.7 SSE 35 46 19 25 1026.6 1026.5 0.0
21/05:00pm 19.2 9.8 -6.4 17 9.8 SSE 35 50 19 27 1026.5 1026.4 0.0
21/04:30pm 19.7 10.1 -4.5 19 9.7 S 37 50 20 27 1026.7 1026.6 0.0
21/04:08pm 19.6 10.4 -4.6 19 9.7 SSE 35 54 19 29 1026.6 1026.5 0.0
21/04:00pm 19.8 11.0 -4.5 19 9.7 SSE 33 46 18 25 1026.8 1026.7 0.0
21/03:47pm 19.6 10.4 -4.6 19 9.7 SSE 35 54 19 29 1026.7 1026.6 0.0
21/03:30pm 19.5 10.0 -3.4 21 9.4 SSE 37 50 20 27 1027.0 1026.9 0.0
21/03:00pm 19.9 10.8 -3.7 20 9.6 SSE 35 46 19 25 1027.2 1027.1 0.0
21/02:30pm 20.0 11.0 -3.0 21 9.6 SSE 35 52 19 28 1027.6 1027.5 0.0
21/02:03pm 19.4 10.4 -2.8 22 9.2 SSE 35 56 19 30 1027.9 1027.8 0.0
21/02:00pm 19.4 10.4 -2.8 22 9.2 SSE 35 46 19 25 1028.0 1027.9 0.0
21/01:30pm 19.3 10.3 -2.9 22 9.2 SSE 35 67 19 36 1028.6 1028.5 0.0
21/01:05pm 19.2 10.2 -2.4 23 9.0 S 35 56 19 30 1029.0 1028.9 0.0
21/01:00pm 18.7 9.8 -2.3 24 8.7 SSE 35 46 19 25 1029.1 1029.0 0.0
21/12:48pm 18.7 9.8 -1.7 25 8.6 SSE 35 57 19 31 1029.0 1028.9 0.0
21/12:30pm 17.9 9.0 -1.9 26 8.3 SSE 35 44 19 24 1029.5 1029.4 0.0
21/12:06pm 17.8 9.0 -0.9 28 8.0 SSE 35 54 19 29 1029.7 1029.6 0.0
21/12:00pm 16.9 8.0 -1.7 28 7.7 SSE 35 46 19 25 1029.9 1029.8 0.0
21/11:30am 17.8 9.2 0.0 30 7.7 SSE 35 48 19 26 1030.4 1030.3 0.0
21/11:00am 16.5 7.1 -0.2 32 7.1 SSE 39 54 21 29 1030.5 1030.4 0.0
21/10:30am 16.3 7.0 0.4 34 6.9 SSE 39 50 21 27 1030.7 1030.6 0.0
21/10:00am 15.0 5.6 0.1 36 6.3 SSE 39 52 21 28 1030.6 1030.5 0.0
21/09:30am 14.9 4.9 1.1 39 6.0 SSE 43 56 23 30 1030.5 1030.4 0.0
21/09:00am 14.0 3.4 0.6 40 5.6 SSE 46 59 25 32 1030.1 1030.0 0.0
21/08:30am 13.5 3.5 0.9 42 5.4 SSE 43 52 23 28 1029.6 1029.5 0.0
21/08:05am 12.8 3.5 0.9 44 5.0 SSE 39 57 21 31 1029.2 1029.1 0.0
21/08:00am 12.9 4.0 1.0 44 5.0 SSE 37 54 20 29 1029.1 1029.0 0.0
21/07:53am 12.6 5.1 1.0 45 4.9 SSE 30 54 16 29 1029.0 1028.9 0.0
21/07:30am 12.3 5.2 1.3 47 4.7 SSE 28 39 15 21 1028.9 1028.8 0.0
21/07:00am 12.0 4.9 1.1 47 4.6 SSE 28 37 15 20 1028.3 1028.2 0.0
21/06:30am 12.0 5.5 0.1 44 4.9 SSE 24 32 13 17 1028.0 1027.9 0.0
21/06:00am 12.6 5.3 -0.3 41 5.3 S 28 35 15 19 1027.4 1027.3 0.0
21/05:30am 13.0 6.4 -0.3 40 5.5 S 24 32 13 17 1026.9 1026.8 0.0
21/05:00am 12.6 5.9 -1.3 38 5.5 S 24 33 13 18 1026.4 1026.3 0.0
21/04:30am 12.1 6.2 -2.1 37 5.6 SSW 19 24 10 13 1026.2 1026.1 0.0
21/04:00am 12.3 6.2 -2.7 35 5.8 SSW 20 22 11 12 1025.9 1025.8 0.0
21/03:30am 13.1 6.6 -2.4 34 6.1 SSW 22 28 12 15 1025.8 1025.7 0.0
21/03:00am 13.3 6.4 -2.6 33 6.2 SSW 24 28 13 15 1025.7 1025.6 0.0
21/02:30am 13.5 7.0 -2.8 32 6.4 SSW 22 26 12 14 1025.6 1025.5 0.0
21/02:00am 13.8 7.6 -3.0 31 6.5 SSW 20 22 11 12 1025.6 1025.5 0.0
21/01:30am 15.1 8.9 -2.8 29 7.1 SSW 20 24 11 13 1025.8 1025.7 0.0
21/01:00am 16.1 8.5 -2.4 28 7.5 S 28 33 15 18 1025.8 1025.7 0.0
21/12:30am 16.8 9.2 -2.3 27 7.8 S 28 35 15 19 1025.7 1025.6 0.0
21/12:00am 17.5 8.6 -1.7 27 8.0 S 35 43 19 23 1025.6 1025.5 0.0
 
Date/Time
EST
Temp
°C
App
Temp
°C
Dew
Point
°C
Rel
Hum
%
Delta-T
°C
Wind Press
QNH
hPa
Press
MSL
hPa
Rain since
9am
mm
Dir  Spd
km/h
Gust
km/h
Spd
kts
Gust
kts
20/11:30pm 17.7 9.5 -1.0 28 7.9 SSW 32 41 17 22 1025.3 1025.2 0.0
20/11:00pm 18.3 10.2 -0.5 28 8.1 SSW 32 43 17 23 1025.0 1024.9 0.0
20/10:30pm 19.2 11.0 0.3 28 8.4 SSW 33 46 18 25 1024.9 1024.7 0.0
20/10:00pm 20.1 10.8 0.5 27 8.7 SSW 39 48 21 26 1024.4 1024.2 0.0
20/09:30pm 20.6 12.0 0.4 26 9.1 SSW 35 43 19 23 1024.1 1023.9 0.0
20/09:00pm 21.6 13.4 2.8 29 8.9 SSW 35 43 19 23 1023.5 1023.3 0.0
20/08:30pm 22.3 14.5 2.9 28 9.3 SSW 33 46 18 25 1023.1 1022.9 0.0
20/08:00pm 22.9 16.7 1.9 25 9.8 SSW 24 32 13 17 1022.6 1022.4 0.0
20/07:30pm 23.8 17.1 1.4 23 10.5 SSW 26 32 14 17 1022.1 1021.9 0.0
20/07:00pm 24.7 17.2 0.9 21 11.1 SSW 30 37 16 20 1021.5 1021.3 0.0
20/06:30pm 25.7 16.4 0.4 19 11.8 SSW 39 48 21 26 1020.7 1020.5 0.0
20/06:00pm 26.9 16.8 -2.8 14 13.2 SSW 41 52 22 28 1020.2 1020.0 0.0
20/05:30pm 27.8 18.0 -3.1 13 13.8 SSW 39 46 21 25 1020.0 1019.8 0.0
20/05:00pm 28.1 18.6 -3.9 12 14.0 SW 37 44 20 24 1019.8 1019.6 0.0
20/04:30pm 28.3 19.2 -3.8 12 14.2 SW 35 44 19 24 1019.6 1019.4 0.0
20/04:00pm 29.2 20.0 -4.3 11 14.7 SSW 35 43 19 23 1019.3 1019.1 0.0
20/03:30pm 29.0 20.4 -4.4 11 14.7 SSW 32 44 17 24 1019.4 1019.2 0.0
20/03:00pm 29.8 21.2 -3.8 11 15.0 SSW 32 43 17 23 1019.9 1019.7 0.0
20/02:30pm 29.8 21.2 -3.8 11 15.0 SSW 32 43 17 23 1020.1 1019.9 0.0
20/02:00pm 29.8 21.2 -3.8 11 15.0 S 32 50 17 27 1020.0 1019.8 0.0
20/01:56pm 29.8 21.6 -3.8 11 15.0 S 30 50 16 27 1020.1 1019.9 0.0
20/01:30pm 30.1 22.2 -4.8 10 15.4 S 28 37 15 20 1020.4 1020.2 0.0
20/01:00pm 29.1 21.2 -4.3 11 14.7 S 28 37 15 20 1020.6 1020.4 0.0
20/12:30pm 30.0 21.7 -4.9 10 15.3 SSE 30 44 16 24 1021.0 1020.8 0.0
20/12:00pm 29.0 20.6 -5.7 10 14.8 S 30 41 16 22 1021.3 1021.1 0.0
20/11:30am 28.3 21.8 -6.2 10 14.6 SSE 20 28 11 15 1021.6 1021.4 0.0
20/11:00am 26.5 19.7 -5.2 12 13.4 SE 22 30 12 16 1022.0 1021.8 0.0
20/10:30am 25.7 19.2 -5.8 12 13.1 SE 20 30 11 16 1022.1 1021.9 0.0
20/10:00am 25.5 18.7 -4.9 13 12.8 SE 22 30 12 16 1022.1 1021.9 0.0
20/09:30am 24.5 17.3 -5.7 13 12.5 SE 24 32 13 17 1021.9 1021.7 0.0
20/09:00am 22.6 15.9 -4.5 16 11.2 SE 22 30 12 16 1021.7 1021.5 0.0

Other formats

Comma delimited format used in spreadsheet applications
http://www.bom.gov.au/fwo/IDQ60801/IDQ60801.95482.axf

JavaScript Object Notation format (JSON) in row-major order
http://www.bom.gov.au/fwo/IDQ60801/IDQ60801.95482.json

Data quality

Most of these data are generated automatically and are frequently updated. Quality checks on data are not normally performed. It is possible for incorrect values to appear. Refer to information at About Latest Weather Observations and please check the disclaimer before using these data.